Wetterdaten: aktuell Samstag, 20.07.2019 21:00
Datum Zeit Temp. A. Feuchte A. Luftdruck Regen Wind Richtung Richtung Sonnenschein ET UV Solar Taupunkt Windchill Windben
20.07.2019 21:00 26,9 C 53 % 1010,4 hPa 0,0 l/m 0,0 km/h (0 Bft) W-SW 237 0 min 0,076 mm 0,0 UV-I 0 W/m 16,5 C 26,9 C 0,0 km/h (0 Bft)
20.07.2019 20:00 29,5 C 43 % 1010,3 hPa 0,0 l/m 0,0 km/h (0 Bft) W-SW 237 0 min 0,178 mm 0,0 UV-I 39 W/m 15,6 C 29,5 C 0,0 km/h (0 Bft)
20.07.2019 19:00 30,6 C 39 % 1010,6 hPa 0,0 l/m 1,1 km/h (1 Bft) W 263 15 min 0,203 mm 0,5 UV-I 120 W/m 15,0 C 30,6 C 6,4 km/h (2 Bft)
20.07.2019 18:00 30,4 C 42 % 1010,9 hPa 0,0 l/m 2,9 km/h (1 Bft) W-SW 246 5 min 0,254 mm 1,0 UV-I 274 W/m 16,0 C 30,4 C 14,5 km/h (3 Bft)
20.07.2019 17:00 30,2 C 40 % 1011,3 hPa 0,0 l/m 0,3 km/h (0 Bft) S-SO 164 30 min 0,457 mm 1,6 UV-I 348 W/m 15,1 C 30,2 C 4,8 km/h (1 Bft)
20.07.2019 16:00 30,6 C 40 % 1012,1 hPa 0,0 l/m 0,2 km/h (0 Bft) N 5 50 min 0,508 mm 3,6 UV-I 788 W/m 15,4 C 30,6 C 4,8 km/h (1 Bft)
20.07.2019 15:00 30,3 C 40 % 1012,5 hPa 0,0 l/m 2,4 km/h (1 Bft) W-SW 242 60 min 0,534 mm 4,6 UV-I 761 W/m 15,2 C 30,3 C 12,9 km/h (3 Bft)
20.07.2019 14:00 29,6 C 43 % 1013,1 hPa 0,0 l/m 0,7 km/h (0 Bft) S-SO 163 60 min 0,533 mm 5,0 UV-I 735 W/m 15,7 C 29,6 C 6,4 km/h (2 Bft)
20.07.2019 13:00 28,3 C 47 % 1013,6 hPa 0,0 l/m 4,0 km/h (1 Bft) W 274 60 min 0,483 mm 5,7 UV-I 793 W/m 15,9 C 28,3 C 11,3 km/h (2 Bft)
20.07.2019 12:00 27,1 C 50 % 1013,9 hPa 0,0 l/m 3,7 km/h (1 Bft) S 171 60 min 0,381 mm 5,1 UV-I 682 W/m 15,8 C 27,1 C 11,3 km/h (2 Bft)
20.07.2019 11:00 25,6 C 56 % 1014,5 hPa 0,0 l/m 3,0 km/h (1 Bft) S 178 60 min 0,127 mm 4,3 UV-I 693 W/m 16,2 C 25,6 C 8,0 km/h (2 Bft)
20.07.2019 10:00 23,5 C 68 % 1014,6 hPa 0,0 l/m 1,0 km/h (0 Bft) S-SO 158 0 min 0,076 mm 2,1 UV-I 146 W/m 17,2 C 23,5 C 6,4 km/h (2 Bft)
20.07.2019 09:00 21,1 C 78 % 1014,9 hPa 0,0 l/m 0,1 km/h (0 Bft) S 184 0 min 0,027 mm 1,4 UV-I 128 W/m 17,1 C 21,1 C 3,2 km/h (1 Bft)
20.07.2019 08:00 18,3 C 85 % 1015,0 hPa 0,0 l/m 0,6 km/h (0 Bft) S 174 20 min 0,027 mm 0,8 UV-I 202 W/m 15,7 C 18,3 C 4,8 km/h (1 Bft)
20.07.2019 07:00 15,9 C 87 % 1014,8 hPa 0,0 l/m 0,0 km/h (0 Bft) N-NW 337 20 min 0,025 mm 0,0 UV-I 156 W/m 13,7 C 15,9 C 1,6 km/h (1 Bft)
20.07.2019 06:00 15,1 C 87 % 1014,9 hPa 0,0 l/m 0,0 km/h (0 Bft) N 0 0 min 0,000 mm 0,0 UV-I 23 W/m 13,0 C 15,1 C 0,0 km/h (0 Bft)
20.07.2019 05:00 14,8 C 87 % 1015,1 hPa 0,0 l/m 0,0 km/h (0 Bft) N 0 0 min 0,000 mm 0,0 UV-I 0 W/m 12,7 C 14,8 C 0,0 km/h (0 Bft)
20.07.2019 04:00 15,4 C 86 % 1015,2 hPa 0,0 l/m 0,0 km/h (0 Bft) N 0 0 min 0,000 mm 0,0 UV-I 0 W/m 13,1 C 15,4 C 0,0 km/h (0 Bft)
20.07.2019 03:00 15,9 C 85 % 1015,1 hPa 0,0 l/m 0,0 km/h (0 Bft) N 0 0 min 0,025 mm 0,0 UV-I 0 W/m 13,4 C 15,9 C 0,0 km/h (0 Bft)
20.07.2019 02:00 15,9 C 85 % 1015,2 hPa 0,0 l/m 0,0 km/h (0 Bft) N-NW 337 0 min 0,025 mm 0,0 UV-I 0 W/m 13,4 C 15,9 C 1,6 km/h (1 Bft)
20.07.2019 01:00 16,6 C 84 % 1015,1 hPa 0,0 l/m 0,0 km/h (0 Bft) N 0 0 min 0,025 mm 0,0 UV-I 0 W/m 13,9 C 16,6 C 0,0 km/h (0 Bft)
20.07.2019 00:00 17,7 C 80 % 1015,1 hPa 0,0 l/m 0,0 km/h (0 Bft) N 0 0 min 0,025 mm 0,0 UV-I 0 W/m 14,2 C 17,7 C 0,0 km/h (0 Bft)
_ Min-Zeit 05:10 15:55 20:10 - 00:00 - - - - - - 05:10 05:10 00:00
Minimum _ 14,6 C 38 % 1010,1 hPa - 0,0 km/h (0 Bft) - - - - - - 12,5 C 14,6 C 0,0 km/h (0 Bft)
_ Max-Zeit 15:35 04:20 00:40 00:00 14:25 - - 06:45 14:05 13:10 14:10 09:55 15:30 14:15
Maximum _ 31,5 C 87 % 1015,2 hPa 0,0 l/m 6,5 km/h
W (2 Bft)
- - 5 min 0,534 mm 6,0 UV-I 856 W/m 17,7 C 31,3 C 16,1 km/h
W (3 Bft)
Durchschnitt _ 23,2 C 64 % 1013,6 hPa #0,0 l/m 1,0 km/h (0 Bft) S-SO - #7:20 h #3,937 mm 3,0 UV-I 365 W/m 15,0 C 23,2 C 4,6 km/h (1 Bft)